createdAt,value
2018-06-15T15:41:15.788Z,54.90
2018-06-15T15:43:43.952Z,7.90
2018-06-15T15:46:12.084Z,9.60
2018-06-15T15:48:40.250Z,9.60
2018-06-15T15:51:08.405Z,9.77
2018-06-15T15:53:36.536Z,8.63
2018-06-15T15:56:04.689Z,8.07
2018-06-15T15:58:32.841Z,9.93
2018-06-15T16:01:00.966Z,9.67
2018-06-15T16:03:29.134Z,10.23
2018-06-15T16:05:57.480Z,8.90
2018-06-15T16:08:25.736Z,9.27
2018-06-15T16:10:53.891Z,9.23
2018-06-15T16:13:22.487Z,9.73
2018-06-15T16:15:50.581Z,9.27
2018-06-15T16:18:18.820Z,10.13
2018-06-15T16:20:46.952Z,9.43
2018-06-15T16:23:15.079Z,8.70
2018-06-15T16:25:43.251Z,9.13
2018-06-15T16:28:11.428Z,10.00
2018-06-15T16:30:39.548Z,10.70
2018-06-15T16:33:07.695Z,9.67
2018-06-15T16:35:35.824Z,9.90
2018-06-15T16:38:03.960Z,9.20
2018-06-15T16:40:32.104Z,10.40
2018-06-15T16:43:00.245Z,9.20
2018-06-15T16:45:28.396Z,9.67
2018-06-15T16:47:56.629Z,10.03
2018-06-15T16:50:24.762Z,9.80
2018-06-15T16:52:52.900Z,9.57
2018-06-15T16:55:21.434Z,8.80
2018-06-15T16:57:49.568Z,8.50
2018-06-15T17:00:17.691Z,8.23
2018-06-15T17:02:45.832Z,8.83
2018-06-15T17:05:13.947Z,9.53
2018-06-15T17:07:42.081Z,8.60
2018-06-15T17:10:10.232Z,9.23
2018-06-15T17:12:38.351Z,8.37
2018-06-15T17:15:06.354Z,8.90
2018-06-15T17:17:34.484Z,9.27
2018-06-15T17:20:02.644Z,9.23
2018-06-15T17:22:31.133Z,15.70
2018-06-15T17:24:59.341Z,8.70
2018-06-15T17:27:27.520Z,16.37
2018-06-15T17:29:55.432Z,9.17
2018-06-15T17:32:23.556Z,18.33
2018-06-15T17:34:51.704Z,20.63
2018-06-15T17:37:19.847Z,22.03
2018-06-15T17:39:47.741Z,17.43
2018-06-15T17:42:16.216Z,10.80
2018-06-15T17:44:44.352Z,14.97
2018-06-15T17:47:12.489Z,13.70
2018-06-15T17:49:40.667Z,13.10
2018-06-15T17:52:08.803Z,13.33
2018-06-15T17:54:36.701Z,11.63
2018-06-15T17:57:04.972Z,13.63
2018-06-15T17:59:33.100Z,11.67
2018-06-15T18:02:01.281Z,10.30
2018-06-15T18:04:29.446Z,10.50
2018-06-15T18:06:57.571Z,10.20
2018-06-15T18:09:25.687Z,11.33
2018-06-15T18:11:53.840Z,10.93
2018-06-15T18:14:21.966Z,12.17
2018-06-15T18:16:50.125Z,10.90
2018-06-15T18:19:18.271Z,9.90
2018-06-15T18:21:46.416Z,9.50
2018-06-15T18:24:14.560Z,12.63
2018-06-15T18:26:42.736Z,11.37
2018-06-15T18:29:10.874Z,13.60
2018-06-15T18:31:39.025Z,11.03
2018-06-15T18:34:07.551Z,11.17
2018-06-15T18:36:35.739Z,11.17
2018-06-15T18:39:06.096Z,10.47
2018-06-15T18:41:34.283Z,11.20
2018-06-15T18:44:02.509Z,10.43
2018-06-15T18:46:30.719Z,11.27
2018-06-15T18:48:58.856Z,11.27
2018-06-15T18:51:29.685Z,10.23
2018-06-15T18:54:00.134Z,10.17
2018-06-15T18:56:29.649Z,10.63
2018-06-15T18:58:59.292Z,10.93
2018-06-15T19:01:28.125Z,10.60
2018-06-15T19:03:56.414Z,12.33
2018-06-15T19:06:24.627Z,12.77
2018-06-15T19:08:52.744Z,13.37
2018-06-15T19:11:23.309Z,13.37
2018-06-15T19:13:51.628Z,12.03
2018-06-15T19:16:19.775Z,12.13
2018-06-15T19:18:47.690Z,11.47
2018-06-15T19:21:15.817Z,12.20
2018-06-15T19:23:43.724Z,11.10
2018-06-15T19:26:11.855Z,11.50
2018-06-15T19:28:39.986Z,10.73
2018-06-15T19:31:08.367Z,10.60
2018-06-15T19:33:36.508Z,10.80
2018-06-15T19:36:04.640Z,10.07
2018-06-15T19:38:32.868Z,12.47
2018-06-15T19:41:00.764Z,11.60
2018-06-15T19:43:28.902Z,12.57
2018-06-15T19:45:58.383Z,12.67
2018-06-15T19:48:26.604Z,12.97
2018-06-15T19:50:54.826Z,12.03
2018-06-15T19:53:23.000Z,11.50
2018-06-15T19:55:51.195Z,10.53
2018-06-15T19:58:19.384Z,10.40
2018-06-15T20:00:47.617Z,9.90
2018-06-15T20:03:15.809Z,10.53
2018-06-15T20:05:43.986Z,11.27
2018-06-15T20:08:12.304Z,10.90
2018-06-15T20:10:40.480Z,10.97
2018-06-15T20:13:08.637Z,10.90
2018-06-15T20:18:08.610Z,10.97
2018-06-15T20:20:36.799Z,11.40
2018-06-15T20:23:05.300Z,11.60
2018-06-15T20:25:33.611Z,11.40
2018-06-15T20:28:01.771Z,11.53
2018-06-15T20:30:29.693Z,11.80
2018-06-15T20:33:01.017Z,12.10
2018-06-15T20:35:29.316Z,11.70
2018-06-15T20:37:57.681Z,12.30
2018-06-15T20:40:25.929Z,12.70
2018-06-15T20:42:54.228Z,12.73
2018-06-15T20:45:22.594Z,12.30
2018-06-15T20:47:50.857Z,12.10
2018-06-15T20:50:19.383Z,12.50
2018-06-15T20:52:47.673Z,13.43
2018-06-15T20:55:15.851Z,12.90
2018-06-15T20:57:44.074Z,12.70
2018-06-15T21:00:12.352Z,12.93
2018-06-15T21:02:40.609Z,13.07
2018-06-15T21:05:08.854Z,12.07
2018-06-15T21:07:37.133Z,12.43
2018-06-15T21:10:05.433Z,12.47
2018-06-15T21:12:34.197Z,12.10
2018-06-15T21:15:02.489Z,12.13
2018-06-15T21:17:30.630Z,12.53
2018-06-15T21:19:58.833Z,13.03
2018-06-15T21:22:27.172Z,12.27
2018-06-15T21:24:55.578Z,12.17
2018-06-15T21:27:23.824Z,10.80
2018-06-15T21:29:52.093Z,11.17
2018-06-15T21:32:20.325Z,11.90
2018-06-15T21:34:48.537Z,11.27
2018-06-15T21:37:16.512Z,10.70
2018-06-15T21:39:44.463Z,10.60
2018-06-15T21:42:12.661Z,10.20
2018-06-15T21:44:44.093Z,10.43
2018-06-15T21:47:12.347Z,9.80
2018-06-15T21:49:40.785Z,10.50
2018-06-15T21:52:09.025Z,9.67
2018-06-15T21:54:37.250Z,10.00
2018-06-15T21:57:05.453Z,9.50
2018-06-15T21:59:33.707Z,8.97
2018-06-15T22:02:01.940Z,8.00
2018-06-15T22:04:30.153Z,8.27
2018-06-15T22:06:58.365Z,7.53
2018-06-15T22:09:26.567Z,7.60
2018-06-15T22:11:54.766Z,7.27
2018-06-15T22:14:22.980Z,7.17
2018-06-15T22:16:52.421Z,7.37
2018-06-15T22:19:22.488Z,7.03
2018-06-15T22:21:51.693Z,6.13
2018-06-15T22:24:20.157Z,6.80
2018-06-15T22:26:48.385Z,6.63
2018-06-15T22:29:16.998Z,7.00
2018-06-15T22:31:45.393Z,6.93
2018-06-15T22:34:13.868Z,6.20
2018-06-15T22:36:42.410Z,6.63
2018-06-15T22:39:14.278Z,6.60
2018-06-15T22:41:43.051Z,6.63
2018-06-15T22:44:12.291Z,6.67
2018-06-15T22:46:41.526Z,6.37
2018-06-15T22:49:10.689Z,6.20
2018-06-15T22:51:39.534Z,5.87
2018-06-15T22:54:08.184Z,5.83
2018-06-15T22:56:36.606Z,6.37
2018-06-15T22:59:05.403Z,6.43
2018-06-15T23:01:34.134Z,5.87
2018-06-15T23:04:02.456Z,6.20
2018-06-15T23:06:30.931Z,5.50
2018-06-15T23:08:59.317Z,5.57
2018-06-15T23:11:27.737Z,5.80
2018-06-15T23:13:56.122Z,5.10
2018-06-15T23:16:24.677Z,5.27
2018-06-15T23:18:53.057Z,5.30
2018-06-15T23:21:21.831Z,5.43
2018-06-15T23:23:50.240Z,5.60
2018-06-15T23:26:18.639Z,5.17
2018-06-15T23:28:47.231Z,5.10
2018-06-15T23:31:15.573Z,5.27
2018-06-15T23:33:44.153Z,5.17
2018-06-15T23:36:12.513Z,5.33
2018-06-15T23:38:40.903Z,5.00
2018-06-15T23:41:09.561Z,5.07
2018-06-15T23:43:38.071Z,4.33
2018-06-15T23:46:06.614Z,4.23
2018-06-15T23:48:35.633Z,4.17
2018-06-15T23:51:04.651Z,3.83
2018-06-15T23:53:33.067Z,4.20
2018-06-15T23:56:01.554Z,4.50
2018-06-15T23:58:30.325Z,4.53
